Main page
METAR-TAF:

METAR-TAF

Airports :

Havre City–County Airport

Havre, Montana, United States

latitude: 48-32-34N, longitude: 109-45-48W, elevation: 2588 ft

Current weather observation

The report was made 21 minutes ago, at 22:53 UTC
Wind 9 mph from the East
Temperature 91°F
Humidity 20%
Pressure 30.08 in. Hg
Visibility: 10 miles
Clear sky

METAR: KHVR 092253Z AUTO 08008KT 10SM CLR 33/07 A3008 RMK AO2 SLP166 T03280067

Time: 17:14 (23:14 UTC)

Forecast

The report was made 1 hour and 49 minutes ago, at 21:25 UTC
Forecast valid from 09 at 21 UTC to 10 at 18 UTC
Wind 13 mph from the East
Visibility: 6 miles
Few clouds at a height of 25000 ft

TAF: KHVR 092125Z 0921/1018 08011KT P6SM FEW250

Weather observations and forecasts of more than 4000 airports (METAR and TAF reports).

The available stations are represented by yellow and red dots on the map.

Hover mouse over dot to see the name of the station.

Then click to see weather observations and forecasts.

To change the map : click on the green buttons with a black cross to zoom in, on the green button with a dash to zoom out, or on the green arrows for adjacent maps.


METAR-TAF: